Aviation Digital Data Service (ADDS)

Output produced by METARs form (0833 UTC 17 November 2018)
found at http://www.aviationweather.gov/metar/data/
 
EFLP 170820Z 26011KT 230V300 9999 BKN015 07/04 Q1028
EFLP 170750Z 26010KT 9999 BKN016 06/04 Q1029
EFLP 170720Z 25010KT 9999 BKN014 06/04 Q1028
EFLP 170650Z 25010KT 9999 BKN013 06/04 Q1029
EFLP 170620Z 26008KT 220V280 9999 BKN013 06/04 Q1029
EFLP 170600Z 26009KT 220V290 9999 BKN013 BKN067 06/04 Q1029
EFLP 170550Z 26011KT 9999 BKN013 06/04 Q1029
EFLP 170520Z 25011KT 9999 BKN013 06/04 Q1029
EFLP 170450Z 25012KT 9999 OVC013 06/04 Q1029
EFLP 170420Z AUTO 25011KT 9999 OVC014 06/04 Q1029
EFLP 170350Z AUTO 25011KT 9999 OVC014 07/04 Q1029
EFLP 170320Z AUTO 24012KT 9999 OVC014 06/04 Q1030
EFLP 170250Z AUTO 23013KT 9999 OVC015 06/04 Q1030
EFLP 170220Z AUTO 24012KT 9999 OVC016 06/04 Q1030
EFLP 170150Z AUTO 24012KT 9999 OVC016 07/04 Q1030
EFLP 170120Z AUTO 23012KT 9999 OVC017 06/04 Q1031
EFLP 170050Z AUTO 23011KT 9999 OVC016 07/04 Q1031
EFLP 170020Z AUTO 23011KT 210V270 9999 OVC017 07/04 Q1031
EFLP 162350Z AUTO 24013KT 210V280 9999 OVC016 07/04 Q1031
EFLP 162320Z AUTO 24013KT 9999 OVC015 07/05 Q1031
EFLP 162250Z AUTO 24013KT 9999 OVC014 07/05 Q1031
EFLP 162220Z AUTO 23011KT 9999 BKN015 07/05 Q1031
EFLP 162150Z AUTO 22010KT 9999 FEW016 07/05 Q1031
EFLP 162120Z AUTO 22009KT CAVOK 07/05 Q1031
EFLP 162050Z AUTO 22010KT CAVOK 07/05 Q1031
EFLP 162020Z AUTO 22011KT CAVOK 07/06 Q1032
EFLP 161950Z AUTO 22010KT CAVOK 08/06 Q1032
EFLP 161920Z AUTO 22011KT 200V260 9999 FEW014 SCT194 08/06 Q1032
EFLP 161850Z AUTO 22010KT CAVOK 08/06 Q1032
EFLP 161820Z AUTO 21009KT 180V240 CAVOK 08/07 Q1032
EFLP 161750Z AUTO 21009KT 170V240 CAVOK 08/07 Q1032
EFLP 161720Z AUTO 21009KT 170V250 CAVOK 08/07 Q1032
EFLP 161650Z AUTO 21008KT 170V240 CAVOK 08/07 Q1032
EFLP 161620Z AUTO 21009KT 170V240 9999 FEW008 BKN061 BKN100 08/07 Q1032
EFLP 161550Z AUTO 21010KT 170V240 9999 BKN008 BKN135 08/07 Q1033
EFLP 161520Z AUTO 21009KT 180V250 9999 BKN008 08/07 Q1033
EFLP 161450Z AUTO 20009KT 150V230 9999 BKN008 08/07 Q1033
EFLP 161420Z AUTO 20009KT 170V230 9999 OVC008 08/07 Q1032
EFLP 161350Z AUTO 21008KT 140V250 9999 OVC008 08/07 Q1032
EFLP 161320Z AUTO 21008KT 160V250 9999 OVC006 08/07 Q1033
EFLP 161250Z AUTO 22009KT 9999 OVC003 08/08 Q1033
EFLP 161220Z AUTO 21008KT 180V240 4800 BR OVC003 08/08 Q1033
EFLP 161150Z AUTO 21008KT 170V240 4900 BR OVC003 08/07 Q1033
EFLP 161120Z AUTO 20007KT 160V240 3800 BR OVC003 08/07 Q1033
EFLP 161050Z AUTO 21008KT 180V240 4700 BR OVC004 08/07 Q1033
EFLP 161020Z AUTO 21008KT 150V260 4800 BR OVC004 08/07 Q1033
EFLP 160950Z AUTO 20009KT 170V230 8000 OVC004 08/07 Q1032
EFLP 160920Z AUTO 21009KT 6000 OVC002 08/07 Q1033
EFLP 160850Z AUTO 21009KT 170V250 5000 BR OVC002 07/07 Q1033
EFLP 160820Z AUTO 21008KT 160V240 4900 BR OVC002 07/07 Q1033
EFLP 160750Z AUTO 20008KT 160V230 3800 BR OVC002 07/07 Q1033
EFLP 160720Z AUTO 20007KT 170V240 5000 OVC002 07/07 Q1033
EFLP 160650Z AUTO 20008KT 150V240 9999 OVC003 07/07 Q1032
EFLP 160620Z AUTO 21007KT 160V240 9000 OVC004 07/06 Q1032
EFLP 160550Z AUTO 21007KT 160V240 4100 BR OVC004 07/06 Q1032
EFLP 160520Z AUTO 21008KT 180V240 3700 BR OVC003 07/06 Q1032
EFLP 160450Z AUTO 21008KT 180V240 5000 BR OVC004 07/06 Q1032
EFLP 160420Z AUTO 21009KT 160V240 6000 OVC004 07/06 Q1032
EFLP 160350Z AUTO 21009KT 150V230 7000 OVC004 07/06 Q1032
EFLP 160320Z AUTO 21008KT 160V240 9999 OVC005 07/06 Q1032
EFLP 160250Z AUTO 21008KT 170V240 8000 OVC005 07/06 Q1032
EFLP 160220Z AUTO 21009KT 170V240 2800 BR OVC007 07/06 Q1032
EFLP 160150Z AUTO 21009KT 160V240 9999 OVC008 07/06 Q1032
EFLP 160120Z AUTO 20009KT 170V230 8000 OVC008 07/06 Q1031
EFLP 160050Z AUTO 20009KT 150V250 9999 OVC009 07/06 Q1031
EFLP 160020Z AUTO 20008KT 150V240 9999 OVC010 07/06 Q1031
EFLP 152350Z AUTO 21008KT 140V240 9999 OVC010 07/06 Q1031
EFLP 152320Z AUTO 21009KT 180V240 9999 OVC011 07/06 Q1031
EFLP 152250Z AUTO 21009KT 170V240 9999 OVC011 07/06 Q1031
EFLP 152220Z AUTO 20009KT 170V240 9999 OVC012 07/05 Q1031
EFLP 152150Z AUTO 21008KT 170V240 9999 OVC012 07/05 Q1031
EFLP 152120Z AUTO 21009KT 170V240 9999 OVC012 07/05 Q1031
EFLP 152050Z AUTO 20008KT 140V240 9999 OVC012 07/05 Q1030
TAF EFLP 170525Z 1706/1709 26012KT 9999 BKN015 
     TEMPO 1706/1708 BKN013